sensor_id;sensor_type;location;lat;lon;timestamp;temperature;humidity
47382;DHT22;33128;51.580;5.170;2022-09-30T00:00:25;9.70;99.90
47382;DHT22;33128;51.580;5.170;2022-09-30T00:02:50;9.70;99.90
47382;DHT22;33128;51.580;5.170;2022-09-30T00:05:16;9.70;99.90
47382;DHT22;33128;51.580;5.170;2022-09-30T00:07:41;9.70;99.90
47382;DHT22;33128;51.580;5.170;2022-09-30T00:10:07;9.70;99.90
47382;DHT22;33128;51.580;5.170;2022-09-30T00:12:33;9.70;99.90
47382;DHT22;33128;51.580;5.170;2022-09-30T00:14:58;9.60;99.90
47382;DHT22;33128;51.580;5.170;2022-09-30T00:17:23;9.60;99.90
47382;DHT22;33128;51.580;5.170;2022-09-30T00:19:49;9.60;99.90
47382;DHT22;33128;51.580;5.170;2022-09-30T00:22:14;9.60;99.90
47382;DHT22;33128;51.580;5.170;2022-09-30T00:24:40;9.50;99.90
47382;DHT22;33128;51.580;5.170;2022-09-30T00:27:05;9.50;99.90
47382;DHT22;33128;51.580;5.170;2022-09-30T00:29:31;9.50;99.90
47382;DHT22;33128;51.580;5.170;2022-09-30T00:31:56;9.50;99.90
47382;DHT22;33128;51.580;5.170;2022-09-30T00:34:22;9.50;99.90
47382;DHT22;33128;51.580;5.170;2022-09-30T00:36:51;9.50;99.90
47382;DHT22;33128;51.580;5.170;2022-09-30T00:39:21;9.40;99.90
47382;DHT22;33128;51.580;5.170;2022-09-30T00:41:48;9.40;99.90
47382;DHT22;33128;51.580;5.170;2022-09-30T00:46:59;9.40;99.90
47382;DHT22;33128;51.580;5.170;2022-09-30T00:49:24;9.30;99.90
47382;DHT22;33128;51.580;5.170;2022-09-30T00:51:52;9.30;99.90
47382;DHT22;33128;51.580;5.170;2022-09-30T00:54:20;9.30;99.90
47382;DHT22;33128;51.580;5.170;2022-09-30T00:56:49;9.30;99.90
47382;DHT22;33128;51.580;5.170;2022-09-30T00:59:17;9.30;99.90
47382;DHT22;33128;51.580;5.170;2022-09-30T01:01:43;9.30;99.90
47382;DHT22;33128;51.580;5.170;2022-09-30T01:04:15;9.20;99.90
47382;DHT22;33128;51.580;5.170;2022-09-30T01:06:42;9.20;99.90
47382;DHT22;33128;51.580;5.170;2022-09-30T01:09:08;9.20;99.90
47382;DHT22;33128;51.580;5.170;2022-09-30T01:11:34;9.10;99.90
47382;DHT22;33128;51.580;5.170;2022-09-30T01:14:00;9.10;99.90
47382;DHT22;33128;51.580;5.170;2022-09-30T01:16:43;9.10;99.90
47382;DHT22;33128;51.580;5.170;2022-09-30T01:22:37;9.10;99.90
47382;DHT22;33128;51.580;5.170;2022-09-30T01:27:22;9.00;99.90
47382;DHT22;33128;51.580;5.170;2022-09-30T01:37:20;9.00;99.90
47382;DHT22;33128;51.580;5.170;2022-09-30T01:40:10;8.90;99.90
47382;DHT22;33128;51.580;5.170;2022-09-30T01:42:47;8.90;99.90
47382;DHT22;33128;51.580;5.170;2022-09-30T01:47:42;8.90;99.90
47382;DHT22;33128;51.580;5.170;2022-09-30T01:50:09;8.90;99.90
47382;DHT22;33128;51.580;5.170;2022-09-30T01:55:28;8.90;99.90
47382;DHT22;33128;51.580;5.170;2022-09-30T02:00:21;8.80;99.90
47382;DHT22;33128;51.580;5.170;2022-09-30T02:02:51;8.80;99.90
47382;DHT22;33128;51.580;5.170;2022-09-30T02:05:23;8.10;99.90
47382;DHT22;33128;51.580;5.170;2022-09-30T02:07:55;7.60;99.90
47382;DHT22;33128;51.580;5.170;2022-09-30T02:10:40;7.40;99.90
47382;DHT22;33128;51.580;5.170;2022-09-30T02:15:36;7.20;99.90
47382;DHT22;33128;51.580;5.170;2022-09-30T02:18:12;7.10;99.90
47382;DHT22;33128;51.580;5.170;2022-09-30T02:20:40;7.10;99.90
47382;DHT22;33128;51.580;5.170;2022-09-30T02:25:32;6.80;99.90
47382;DHT22;33128;51.580;5.170;2022-09-30T02:28:00;6.60;99.90
47382;DHT22;33128;51.580;5.170;2022-09-30T02:30:30;6.60;99.90
47382;DHT22;33128;51.580;5.170;2022-09-30T02:32:58;6.60;99.90
47382;DHT22;33128;51.580;5.170;2022-09-30T02:35:29;6.60;99.90
47382;DHT22;33128;51.580;5.170;2022-09-30T02:37:57;6.50;99.90
47382;DHT22;33128;51.580;5.170;2022-09-30T02:40:28;6.60;99.90
47382;DHT22;33128;51.580;5.170;2022-09-30T02:42:55;6.60;99.90
47382;DHT22;33128;51.580;5.170;2022-09-30T02:45:21;6.60;99.90
47382;DHT22;33128;51.580;5.170;2022-09-30T02:50:18;6.30;99.90
47382;DHT22;33128;51.580;5.170;2022-09-30T02:55:15;6.30;99.90
47382;DHT22;33128;51.580;5.170;2022-09-30T03:00:26;6.40;99.90
47382;DHT22;33128;51.580;5.170;2022-09-30T03:02:56;6.20;99.90
47382;DHT22;33128;51.580;5.170;2022-09-30T03:05:23;6.10;99.90
47382;DHT22;33128;51.580;5.170;2022-09-30T03:07:48;6.10;99.90
47382;DHT22;33128;51.580;5.170;2022-09-30T03:10:15;6.00;99.90
47382;DHT22;33128;51.580;5.170;2022-09-30T03:12:45;6.00;99.90
47382;DHT22;33128;51.580;5.170;2022-09-30T03:15:18;6.10;99.90
47382;DHT22;33128;51.580;5.170;2022-09-30T03:20:30;6.10;99.90
47382;DHT22;33128;51.580;5.170;2022-09-30T03:28:34;5.90;99.90
47382;DHT22;33128;51.580;5.170;2022-09-30T03:33:28;6.00;99.90
47382;DHT22;33128;51.580;5.170;2022-09-30T03:36:04;6.00;99.90
47382;DHT22;33128;51.580;5.170;2022-09-30T03:45:57;5.70;99.90
47382;DHT22;33128;51.580;5.170;2022-09-30T03:48:28;5.70;99.90
47382;DHT22;33128;51.580;5.170;2022-09-30T03:50:55;5.80;99.90
47382;DHT22;33128;51.580;5.170;2022-09-30T03:53:21;5.70;99.90
47382;DHT22;33128;51.580;5.170;2022-09-30T03:55:48;5.80;99.90
47382;DHT22;33128;51.580;5.170;2022-09-30T03:58:14;5.70;99.90
47382;DHT22;33128;51.580;5.170;2022-09-30T04:00:41;5.60;99.90
47382;DHT22;33128;51.580;5.170;2022-09-30T04:03:10;5.60;99.90
47382;DHT22;33128;51.580;5.170;2022-09-30T04:05:36;5.60;99.90
47382;DHT22;33128;51.580;5.170;2022-09-30T04:08:01;5.60;99.90
47382;DHT22;33128;51.580;5.170;2022-09-30T04:10:27;6.10;99.90
47382;DHT22;33128;51.580;5.170;2022-09-30T04:12:52;5.80;99.90
47382;DHT22;33128;51.580;5.170;2022-09-30T04:15:19;5.70;99.90
47382;DHT22;33128;51.580;5.170;2022-09-30T04:17:44;5.70;99.90
47382;DHT22;33128;51.580;5.170;2022-09-30T04:20:10;5.70;99.90
47382;DHT22;33128;51.580;5.170;2022-09-30T04:22:37;5.60;99.90
47382;DHT22;33128;51.580;5.170;2022-09-30T04:25:02;5.60;99.90
47382;DHT22;33128;51.580;5.170;2022-09-30T04:27:28;5.70;99.90
47382;DHT22;33128;51.580;5.170;2022-09-30T04:29:54;5.70;99.90
47382;DHT22;33128;51.580;5.170;2022-09-30T04:32:22;5.70;99.90
47382;DHT22;33128;51.580;5.170;2022-09-30T04:34:50;5.70;99.90
47382;DHT22;33128;51.580;5.170;2022-09-30T04:37:15;5.60;99.90
47382;DHT22;33128;51.580;5.170;2022-09-30T04:39:41;5.70;99.90
47382;DHT22;33128;51.580;5.170;2022-09-30T04:42:06;5.60;99.90
47382;DHT22;33128;51.580;5.170;2022-09-30T04:44:32;5.70;99.90
47382;DHT22;33128;51.580;5.170;2022-09-30T04:46:57;5.60;99.90
47382;DHT22;33128;51.580;5.170;2022-09-30T04:49:23;5.70;99.90
47382;DHT22;33128;51.580;5.170;2022-09-30T04:51:48;5.70;99.90
47382;DHT22;33128;51.580;5.170;2022-09-30T04:54:14;5.60;99.90
47382;DHT22;33128;51.580;5.170;2022-09-30T04:56:40;5.70;99.90
47382;DHT22;33128;51.580;5.170;2022-09-30T04:59:06;5.50;99.90
47382;DHT22;33128;51.580;5.170;2022-09-30T05:01:32;5.50;99.90
47382;DHT22;33128;51.580;5.170;2022-09-30T05:03:57;5.50;99.90
47382;DHT22;33128;51.580;5.170;2022-09-30T05:06:23;5.40;99.90
47382;DHT22;33128;51.580;5.170;2022-09-30T05:08:48;5.50;99.90
47382;DHT22;33128;51.580;5.170;2022-09-30T05:11:15;5.50;99.90
47382;DHT22;33128;51.580;5.170;2022-09-30T05:13:42;5.50;99.90
47382;DHT22;33128;51.580;5.170;2022-09-30T05:16:08;5.50;99.90
47382;DHT22;33128;51.580;5.170;2022-09-30T05:18:34;5.50;99.90
47382;DHT22;33128;51.580;5.170;2022-09-30T05:21:00;5.50;99.90
47382;DHT22;33128;51.580;5.170;2022-09-30T05:23:26;5.50;99.90
47382;DHT22;33128;51.580;5.170;2022-09-30T05:25:52;5.40;99.90
47382;DHT22;33128;51.580;5.170;2022-09-30T05:28:18;5.40;99.90
47382;DHT22;33128;51.580;5.170;2022-09-30T05:30:44;5.30;99.90
47382;DHT22;33128;51.580;5.170;2022-09-30T05:33:10;5.50;99.90
47382;DHT22;33128;51.580;5.170;2022-09-30T05:35:37;5.50;99.90
47382;DHT22;33128;51.580;5.170;2022-09-30T05:38:03;5.90;99.90
47382;DHT22;33128;51.580;5.170;2022-09-30T05:40:29;5.40;99.90
47382;DHT22;33128;51.580;5.170;2022-09-30T05:42:55;5.70;99.90
47382;DHT22;33128;51.580;5.170;2022-09-30T05:45:21;6.10;99.90
47382;DHT22;33128;51.580;5.170;2022-09-30T05:47:52;6.30;99.90
47382;DHT22;33128;51.580;5.170;2022-09-30T05:50:18;6.50;99.90
47382;DHT22;33128;51.580;5.170;2022-09-30T05:52:47;7.60;99.90
47382;DHT22;33128;51.580;5.170;2022-09-30T05:55:14;7.40;99.90
47382;DHT22;33128;51.580;5.170;2022-09-30T05:57:40;7.20;99.90
47382;DHT22;33128;51.580;5.170;2022-09-30T06:00:06;7.00;99.90
47382;DHT22;33128;51.580;5.170;2022-09-30T06:02:32;7.00;99.90
47382;DHT22;33128;51.580;5.170;2022-09-30T06:05:16;7.60;99.90
47382;DHT22;33128;51.580;5.170;2022-09-30T06:07:42;7.10;99.90
47382;DHT22;33128;51.580;5.170;2022-09-30T06:10:08;7.10;99.90
47382;DHT22;33128;51.580;5.170;2022-09-30T06:15:39;7.30;99.90
47382;DHT22;33128;51.580;5.170;2022-09-30T06:18:05;7.30;99.90
47382;DHT22;33128;51.580;5.170;2022-09-30T06:20:31;7.30;99.90
47382;DHT22;33128;51.580;5.170;2022-09-30T06:22:57;7.40;99.90
47382;DHT22;33128;51.580;5.170;2022-09-30T06:25:35;7.50;99.90
47382;DHT22;33128;51.580;5.170;2022-09-30T06:28:16;7.50;99.90
47382;DHT22;33128;51.580;5.170;2022-09-30T06:30:42;7.50;99.90
47382;DHT22;33128;51.580;5.170;2022-09-30T06:39:12;7.70;99.90
47382;DHT22;33128;51.580;5.170;2022-09-30T06:41:38;7.70;99.90
47382;DHT22;33128;51.580;5.170;2022-09-30T06:46:41;7.80;99.90
47382;DHT22;33128;51.580;5.170;2022-09-30T06:55:19;7.90;99.90
47382;DHT22;33128;51.580;5.170;2022-09-30T07:13:25;8.30;99.90
47382;DHT22;33128;51.580;5.170;2022-09-30T07:15:56;8.40;99.90
47382;DHT22;33128;51.580;5.170;2022-09-30T07:18:31;8.40;99.90
47382;DHT22;33128;51.580;5.170;2022-09-30T07:23:26;8.50;99.90
47382;DHT22;33128;51.580;5.170;2022-09-30T07:25:55;8.60;99.90
47382;DHT22;33128;51.580;5.170;2022-09-30T07:28:34;8.60;99.90
47382;DHT22;33128;51.580;5.170;2022-09-30T07:31:07;8.80;99.90
47382;DHT22;33128;51.580;5.170;2022-09-30T07:33:36;8.80;99.90
47382;DHT22;33128;51.580;5.170;2022-09-30T07:38:54;8.90;99.90
47382;DHT22;33128;51.580;5.170;2022-09-30T07:41:22;9.00;99.90
47382;DHT22;33128;51.580;5.170;2022-09-30T07:44:18;9.10;99.90
47382;DHT22;33128;51.580;5.170;2022-09-30T07:47:00;9.10;99.90
47382;DHT22;33128;51.580;5.170;2022-09-30T07:49:36;9.30;99.90
47382;DHT22;33128;51.580;5.170;2022-09-30T07:52:02;9.40;99.90
47382;DHT22;33128;51.580;5.170;2022-09-30T07:54:46;9.40;99.90
47382;DHT22;33128;51.580;5.170;2022-09-30T07:57:11;9.50;99.90
47382;DHT22;33128;51.580;5.170;2022-09-30T07:59:52;9.60;99.90
47382;DHT22;33128;51.580;5.170;2022-09-30T08:02:18;9.80;99.90
47382;DHT22;33128;51.580;5.170;2022-09-30T08:04:55;9.80;99.90
47382;DHT22;33128;51.580;5.170;2022-09-30T08:07:49;10.10;99.90
47382;DHT22;33128;51.580;5.170;2022-09-30T08:10:21;10.60;99.90
47382;DHT22;33128;51.580;5.170;2022-09-30T08:12:55;10.80;99.90
47382;DHT22;33128;51.580;5.170;2022-09-30T08:15:39;11.00;99.90
47382;DHT22;33128;51.580;5.170;2022-09-30T08:18:08;11.10;99.90
47382;DHT22;33128;51.580;5.170;2022-09-30T08:23:57;11.30;99.90
47382;DHT22;33128;51.580;5.170;2022-09-30T08:26:23;11.40;99.90
47382;DHT22;33128;51.580;5.170;2022-09-30T08:28:49;11.40;99.90
47382;DHT22;33128;51.580;5.170;2022-09-30T08:31:19;11.50;99.90
47382;DHT22;33128;51.580;5.170;2022-09-30T08:33:53;11.50;99.90
47382;DHT22;33128;51.580;5.170;2022-09-30T08:36:31;11.60;99.90
47382;DHT22;33128;51.580;5.170;2022-09-30T08:38:59;11.70;99.90
47382;DHT22;33128;51.580;5.170;2022-09-30T08:41:47;11.70;99.90
47382;DHT22;33128;51.580;5.170;2022-09-30T08:44:43;11.70;99.90
47382;DHT22;33128;51.580;5.170;2022-09-30T08:53:25;11.90;99.90
47382;DHT22;33128;51.580;5.170;2022-09-30T08:55:52;12.00;99.90
47382;DHT22;33128;51.580;5.170;2022-09-30T08:58:22;12.00;99.90
47382;DHT22;33128;51.580;5.170;2022-09-30T09:00:50;12.00;99.90
47382;DHT22;33128;51.580;5.170;2022-09-30T09:03:19;12.10;99.90
47382;DHT22;33128;51.580;5.170;2022-09-30T09:14:17;12.30;99.90
47382;DHT22;33128;51.580;5.170;2022-09-30T09:16:46;12.40;99.90
47382;DHT22;33128;51.580;5.170;2022-09-30T09:19:18;12.40;99.90
47382;DHT22;33128;51.580;5.170;2022-09-30T09:21:54;12.40;99.90
47382;DHT22;33128;51.580;5.170;2022-09-30T09:24:25;12.50;99.90
47382;DHT22;33128;51.580;5.170;2022-09-30T09:26:52;12.50;99.90
47382;DHT22;33128;51.580;5.170;2022-09-30T09:29:38;12.60;99.90
47382;DHT22;33128;51.580;5.170;2022-09-30T09:32:14;12.70;99.90
47382;DHT22;33128;51.580;5.170;2022-09-30T09:34:43;12.70;99.90
47382;DHT22;33128;51.580;5.170;2022-09-30T09:39:54;12.80;99.90
47382;DHT22;33128;51.580;5.170;2022-09-30T09:45:03;12.90;99.90
47382;DHT22;33128;51.580;5.170;2022-09-30T09:47:33;12.90;99.90
47382;DHT22;33128;51.580;5.170;2022-09-30T09:49:59;12.90;99.90
47382;DHT22;33128;51.580;5.170;2022-09-30T09:55:04;13.00;99.90
47382;DHT22;33128;51.580;5.170;2022-09-30T09:57:30;13.10;99.90
47382;DHT22;33128;51.580;5.170;2022-09-30T10:00:00;13.10;99.90
47382;DHT22;33128;51.580;5.170;2022-09-30T10:05:36;13.80;99.90
47382;DHT22;33128;51.580;5.170;2022-09-30T10:08:20;14.10;99.90
47382;DHT22;33128;51.580;5.170;2022-09-30T10:10:51;14.30;99.90
47382;DHT22;33128;51.580;5.170;2022-09-30T10:15:44;14.50;99.90
47382;DHT22;33128;51.580;5.170;2022-09-30T10:18:22;14.50;99.90
47382;DHT22;33128;51.580;5.170;2022-09-30T10:20:55;14.70;99.90
47382;DHT22;33128;51.580;5.170;2022-09-30T10:23:32;14.80;99.90
47382;DHT22;33128;51.580;5.170;2022-09-30T10:26:15;14.80;99.90
47382;DHT22;33128;51.580;5.170;2022-09-30T10:28:50;15.00;99.90
47382;DHT22;33128;51.580;5.170;2022-09-30T10:31:26;15.10;99.90
47382;DHT22;33128;51.580;5.170;2022-09-30T10:36:52;15.40;99.90
47382;DHT22;33128;51.580;5.170;2022-09-30T10:39:36;15.50;99.90
47382;DHT22;33128;51.580;5.170;2022-09-30T10:44:48;15.30;99.90
47382;DHT22;33128;51.580;5.170;2022-09-30T10:47:21;15.40;99.90
47382;DHT22;33128;51.580;5.170;2022-09-30T10:49:55;15.60;99.90
47382;DHT22;33128;51.580;5.170;2022-09-30T10:52:25;15.90;99.90
47382;DHT22;33128;51.580;5.170;2022-09-30T10:54:56;16.10;99.90
47382;DHT22;33128;51.580;5.170;2022-09-30T10:57:28;16.10;99.90
47382;DHT22;33128;51.580;5.170;2022-09-30T11:00:15;15.70;99.90
47382;DHT22;33128;51.580;5.170;2022-09-30T11:02:55;15.60;99.90
47382;DHT22;33128;51.580;5.170;2022-09-30T11:05:25;16.10;99.90
47382;DHT22;33128;51.580;5.170;2022-09-30T11:19:02;16.90;99.90
47382;DHT22;33128;51.580;5.170;2022-09-30T11:21:52;17.10;99.90
47382;DHT22;33128;51.580;5.170;2022-09-30T11:24:41;16.50;99.90
47382;DHT22;33128;51.580;5.170;2022-09-30T11:27:30;16.80;99.90
47382;DHT22;33128;51.580;5.170;2022-09-30T11:30:19;17.00;99.90
47382;DHT22;33128;51.580;5.170;2022-09-30T11:36:15;17.20;99.90
47382;DHT22;33128;51.580;5.170;2022-09-30T11:51:54;18.00;99.90
47382;DHT22;33128;51.580;5.170;2022-09-30T11:54:36;18.10;99.90
47382;DHT22;33128;51.580;5.170;2022-09-30T11:57:30;18.10;99.90
47382;DHT22;33128;51.580;5.170;2022-09-30T12:00:03;17.50;99.90
47382;DHT22;33128;51.580;5.170;2022-09-30T12:02:53;17.20;99.90
47382;DHT22;33128;51.580;5.170;2022-09-30T12:05:31;16.70;99.90
47382;DHT22;33128;51.580;5.170;2022-09-30T12:10:50;17.90;99.90
47382;DHT22;33128;51.580;5.170;2022-09-30T12:13:25;17.60;99.90
47382;DHT22;33128;51.580;5.170;2022-09-30T12:15:55;18.30;99.90
47382;DHT22;33128;51.580;5.170;2022-09-30T12:18:29;18.50;99.90
47382;DHT22;33128;51.580;5.170;2022-09-30T12:21:03;18.10;99.90
47382;DHT22;33128;51.580;5.170;2022-09-30T12:23:39;17.50;99.90
47382;DHT22;33128;51.580;5.170;2022-09-30T12:26:11;17.00;99.90
47382;DHT22;33128;51.580;5.170;2022-09-30T12:28:54;16.50;99.90
47382;DHT22;33128;51.580;5.170;2022-09-30T12:48:17;18.90;99.90
47382;DHT22;33128;51.580;5.170;2022-09-30T12:50:51;18.50;99.90
47382;DHT22;33128;51.580;5.170;2022-09-30T12:53:30;17.90;99.90
47382;DHT22;33128;51.580;5.170;2022-09-30T12:56:22;18.60;99.90
47382;DHT22;33128;51.580;5.170;2022-09-30T12:58:53;19.00;99.90
47382;DHT22;33128;51.580;5.170;2022-09-30T13:01:24;19.20;99.90
47382;DHT22;33128;51.580;5.170;2022-09-30T13:04:30;19.10;99.90
47382;DHT22;33128;51.580;5.170;2022-09-30T13:09:32;19.20;99.90
47382;DHT22;33128;51.580;5.170;2022-09-30T13:14:33;19.10;99.90
47382;DHT22;33128;51.580;5.170;2022-09-30T13:19:38;19.20;99.90
47382;DHT22;33128;51.580;5.170;2022-09-30T13:28:08;18.90;99.90
47382;DHT22;33128;51.580;5.170;2022-09-30T13:30:38;18.60;99.90
47382;DHT22;33128;51.580;5.170;2022-09-30T13:33:25;18.50;99.90
47382;DHT22;33128;51.580;5.170;2022-09-30T13:35:55;18.60;99.90
47382;DHT22;33128;51.580;5.170;2022-09-30T13:38:37;18.40;99.90
47382;DHT22;33128;51.580;5.170;2022-09-30T13:41:24;17.80;99.90
47382;DHT22;33128;51.580;5.170;2022-09-30T13:43:57;18.70;99.90
47382;DHT22;33128;51.580;5.170;2022-09-30T13:46:45;18.10;99.90
47382;DHT22;33128;51.580;5.170;2022-09-30T13:49:28;18.20;99.90
47382;DHT22;33128;51.580;5.170;2022-09-30T13:51:57;18.30;99.90
47382;DHT22;33128;51.580;5.170;2022-09-30T13:54:31;18.50;99.90
47382;DHT22;33128;51.580;5.170;2022-09-30T13:56:59;18.80;99.90
47382;DHT22;33128;51.580;5.170;2022-09-30T14:15:59;18.70;99.90
47382;DHT22;33128;51.580;5.170;2022-09-30T14:24:20;18.60;99.90
47382;DHT22;33128;51.580;5.170;2022-09-30T14:27:15;18.90;99.90
47382;DHT22;33128;51.580;5.170;2022-09-30T14:30:05;18.60;99.90
47382;DHT22;33128;51.580;5.170;2022-09-30T14:32:38;18.30;99.90
47382;DHT22;33128;51.580;5.170;2022-09-30T14:35:06;18.20;99.90
47382;DHT22;33128;51.580;5.170;2022-09-30T14:37:40;18.50;99.90
47382;DHT22;33128;51.580;5.170;2022-09-30T14:40:14;18.70;99.90
47382;DHT22;33128;51.580;5.170;2022-09-30T14:42:42;18.80;99.90
47382;DHT22;33128;51.580;5.170;2022-09-30T14:45:20;18.80;99.90
47382;DHT22;33128;51.580;5.170;2022-09-30T14:47:50;19.00;99.90
47382;DHT22;33128;51.580;5.170;2022-09-30T14:50:20;19.00;99.90
47382;DHT22;33128;51.580;5.170;2022-09-30T14:52:48;18.70;99.90
47382;DHT22;33128;51.580;5.170;2022-09-30T14:58:13;19.60;99.90
47382;DHT22;33128;51.580;5.170;2022-09-30T15:00:43;19.60;99.90
47382;DHT22;33128;51.580;5.170;2022-09-30T15:03:12;19.70;99.90
47382;DHT22;33128;51.580;5.170;2022-09-30T15:05:38;19.50;99.90
47382;DHT22;33128;51.580;5.170;2022-09-30T15:08:14;19.20;99.90
47382;DHT22;33128;51.580;5.170;2022-09-30T15:10:46;19.20;99.90
47382;DHT22;33128;51.580;5.170;2022-09-30T15:13:12;19.70;99.90
47382;DHT22;33128;51.580;5.170;2022-09-30T15:15:39;19.90;99.90
47382;DHT22;33128;51.580;5.170;2022-09-30T15:18:27;20.00;99.90
47382;DHT22;33128;51.580;5.170;2022-09-30T15:20:57;19.80;99.90
47382;DHT22;33128;51.580;5.170;2022-09-30T15:23:30;19.50;99.90
47382;DHT22;33128;51.580;5.170;2022-09-30T15:25:59;19.70;99.90
47382;DHT22;33128;51.580;5.170;2022-09-30T15:28:25;19.80;99.90
47382;DHT22;33128;51.580;5.170;2022-09-30T15:30:52;19.90;99.90
47382;DHT22;33128;51.580;5.170;2022-09-30T15:33:25;19.00;99.90
47382;DHT22;33128;51.580;5.170;2022-09-30T15:36:03;18.50;99.90
47382;DHT22;33128;51.580;5.170;2022-09-30T15:38:31;18.30;99.90
47382;DHT22;33128;51.580;5.170;2022-09-30T15:41:09;18.20;99.90
47382;DHT22;33128;51.580;5.170;2022-09-30T15:43:41;18.10;99.90
47382;DHT22;33128;51.580;5.170;2022-09-30T15:46:29;17.70;99.90
47382;DHT22;33128;51.580;5.170;2022-09-30T15:48:55;17.50;99.90
47382;DHT22;33128;51.580;5.170;2022-09-30T15:51:36;17.50;99.90
47382;DHT22;33128;51.580;5.170;2022-09-30T15:54:28;17.50;99.90
47382;DHT22;33128;51.580;5.170;2022-09-30T16:00:05;17.60;99.90
47382;DHT22;33128;51.580;5.170;2022-09-30T16:02:33;17.60;99.90
47382;DHT22;33128;51.580;5.170;2022-09-30T16:05:00;17.40;99.90
47382;DHT22;33128;51.580;5.170;2022-09-30T16:07:28;17.20;99.90
47382;DHT22;33128;51.580;5.170;2022-09-30T16:09:56;17.20;99.90
47382;DHT22;33128;51.580;5.170;2022-09-30T16:12:25;17.10;99.90
47382;DHT22;33128;51.580;5.170;2022-09-30T16:15:00;17.10;99.90
47382;DHT22;33128;51.580;5.170;2022-09-30T16:17:34;17.00;99.90
47382;DHT22;33128;51.580;5.170;2022-09-30T16:20:18;16.70;99.90
47382;DHT22;33128;51.580;5.170;2022-09-30T16:28:01;16.60;99.90
47382;DHT22;33128;51.580;5.170;2022-09-30T16:30:33;16.40;99.90
47382;DHT22;33128;51.580;5.170;2022-09-30T16:33:03;16.30;99.90
47382;DHT22;33128;51.580;5.170;2022-09-30T16:35:41;16.10;99.90
47382;DHT22;33128;51.580;5.170;2022-09-30T16:38:12;16.00;99.90
47382;DHT22;33128;51.580;5.170;2022-09-30T16:40:38;16.00;99.90
47382;DHT22;33128;51.580;5.170;2022-09-30T16:43:05;16.00;99.90
47382;DHT22;33128;51.580;5.170;2022-09-30T16:45:31;16.00;99.90
47382;DHT22;33128;51.580;5.170;2022-09-30T16:47:59;15.90;99.90
47382;DHT22;33128;51.580;5.170;2022-09-30T16:50:52;15.70;99.90
47382;DHT22;33128;51.580;5.170;2022-09-30T16:53:19;15.70;99.90
47382;DHT22;33128;51.580;5.170;2022-09-30T16:55:44;15.80;99.90
47382;DHT22;33128;51.580;5.170;2022-09-30T16:58:12;15.50;99.90
47382;DHT22;33128;51.580;5.170;2022-09-30T17:00:43;15.50;99.90
47382;DHT22;33128;51.580;5.170;2022-09-30T17:03:11;15.30;99.90
47382;DHT22;33128;51.580;5.170;2022-09-30T17:05:39;15.30;99.90
47382;DHT22;33128;51.580;5.170;2022-09-30T17:08:10;15.10;99.90
47382;DHT22;33128;51.580;5.170;2022-09-30T17:10:47;15.20;99.90
47382;DHT22;33128;51.580;5.170;2022-09-30T17:13:15;15.10;99.90
47382;DHT22;33128;51.580;5.170;2022-09-30T17:15:41;15.10;99.90
47382;DHT22;33128;51.580;5.170;2022-09-30T17:18:09;15.10;99.90
47382;DHT22;33128;51.580;5.170;2022-09-30T17:20:36;14.80;99.90
47382;DHT22;33128;51.580;5.170;2022-09-30T17:23:02;14.80;99.90
47382;DHT22;33128;51.580;5.170;2022-09-30T17:25:28;14.80;99.90
47382;DHT22;33128;51.580;5.170;2022-09-30T17:27:54;14.70;99.90
47382;DHT22;33128;51.580;5.170;2022-09-30T17:30:23;14.70;99.90
47382;DHT22;33128;51.580;5.170;2022-09-30T17:32:48;14.70;99.90
47382;DHT22;33128;51.580;5.170;2022-09-30T17:35:14;14.80;99.90
47382;DHT22;33128;51.580;5.170;2022-09-30T17:37:40;14.80;99.90
47382;DHT22;33128;51.580;5.170;2022-09-30T17:40:06;14.70;99.90
47382;DHT22;33128;51.580;5.170;2022-09-30T17:42:54;14.60;99.90
47382;DHT22;33128;51.580;5.170;2022-09-30T17:45:32;14.50;99.90
47382;DHT22;33128;51.580;5.170;2022-09-30T17:47:58;14.50;99.90
47382;DHT22;33128;51.580;5.170;2022-09-30T17:50:24;14.50;99.90
47382;DHT22;33128;51.580;5.170;2022-09-30T17:52:49;14.40;99.90
47382;DHT22;33128;51.580;5.170;2022-09-30T17:55:15;14.30;99.90
47382;DHT22;33128;51.580;5.170;2022-09-30T17:57:41;14.30;99.90
47382;DHT22;33128;51.580;5.170;2022-09-30T18:00:06;14.90;99.90
47382;DHT22;33128;51.580;5.170;2022-09-30T18:02:32;15.90;99.90
47382;DHT22;33128;51.580;5.170;2022-09-30T18:04:58;16.40;99.90
47382;DHT22;33128;51.580;5.170;2022-09-30T18:07:23;16.50;99.90
47382;DHT22;33128;51.580;5.170;2022-09-30T18:09:49;16.50;99.90
47382;DHT22;33128;51.580;5.170;2022-09-30T18:12:15;16.50;99.90
47382;DHT22;33128;51.580;5.170;2022-09-30T18:14:41;16.50;99.90
47382;DHT22;33128;51.580;5.170;2022-09-30T18:17:08;16.50;99.90
47382;DHT22;33128;51.580;5.170;2022-09-30T18:19:33;16.40;99.90
47382;DHT22;33128;51.580;5.170;2022-09-30T18:22:00;16.30;99.90
47382;DHT22;33128;51.580;5.170;2022-09-30T18:24:25;16.30;99.90
47382;DHT22;33128;51.580;5.170;2022-09-30T18:27:09;16.30;99.90
47382;DHT22;33128;51.580;5.170;2022-09-30T18:29:35;16.30;99.90
47382;DHT22;33128;51.580;5.170;2022-09-30T18:32:01;16.30;99.90
47382;DHT22;33128;51.580;5.170;2022-09-30T18:34:27;16.20;99.90
47382;DHT22;33128;51.580;5.170;2022-09-30T18:36:52;16.20;99.90
47382;DHT22;33128;51.580;5.170;2022-09-30T18:39:18;16.20;99.90
47382;DHT22;33128;51.580;5.170;2022-09-30T18:41:43;16.20;99.90
47382;DHT22;33128;51.580;5.170;2022-09-30T18:44:09;16.20;99.90
47382;DHT22;33128;51.580;5.170;2022-09-30T18:46:35;16.10;99.90
47382;DHT22;33128;51.580;5.170;2022-09-30T18:49:02;16.10;99.90
47382;DHT22;33128;51.580;5.170;2022-09-30T18:51:28;16.10;99.90
47382;DHT22;33128;51.580;5.170;2022-09-30T18:53:54;16.10;99.90
47382;DHT22;33128;51.580;5.170;2022-09-30T18:56:28;16.10;99.90
47382;DHT22;33128;51.580;5.170;2022-09-30T18:59:11;16.10;99.90
47382;DHT22;33128;51.580;5.170;2022-09-30T19:01:40;16.10;99.90
47382;DHT22;33128;51.580;5.170;2022-09-30T19:04:18;16.10;99.90
47382;DHT22;33128;51.580;5.170;2022-09-30T19:06:43;16.00;99.90
47382;DHT22;33128;51.580;5.170;2022-09-30T19:09:12;16.00;99.90
47382;DHT22;33128;51.580;5.170;2022-09-30T19:11:37;16.00;99.90
47382;DHT22;33128;51.580;5.170;2022-09-30T19:14:10;16.00;99.90
47382;DHT22;33128;51.580;5.170;2022-09-30T19:16:36;16.00;99.90
47382;DHT22;33128;51.580;5.170;2022-09-30T19:19:02;16.00;99.90
47382;DHT22;33128;51.580;5.170;2022-09-30T19:21:29;15.90;99.90
47382;DHT22;33128;51.580;5.170;2022-09-30T19:23:56;16.00;99.90
47382;DHT22;33128;51.580;5.170;2022-09-30T19:26:23;15.90;99.90
47382;DHT22;33128;51.580;5.170;2022-09-30T19:28:51;15.90;99.90
47382;DHT22;33128;51.580;5.170;2022-09-30T19:31:28;15.90;99.90
47382;DHT22;33128;51.580;5.170;2022-09-30T19:33:54;15.90;99.90
47382;DHT22;33128;51.580;5.170;2022-09-30T19:36:22;15.90;99.90
47382;DHT22;33128;51.580;5.170;2022-09-30T19:38:48;15.90;99.90
47382;DHT22;33128;51.580;5.170;2022-09-30T19:41:14;15.90;99.90
47382;DHT22;33128;51.580;5.170;2022-09-30T19:43:43;15.90;99.90